sensor_id;sensor_type;location;lat;lon;timestamp;P1;durP1;ratioP1;P2;durP2;ratioP2
8361;SDS011;4218;48.326;14.304;2022-07-23T00:02:11;4.10;;;3.80;;
8361;SDS011;4218;48.326;14.304;2022-07-23T00:04:39;4.40;;;4.00;;
8361;SDS011;4218;48.326;14.304;2022-07-23T00:07:04;4.23;;;3.93;;
8361;SDS011;4218;48.326;14.304;2022-07-23T00:09:30;4.50;;;4.17;;
8361;SDS011;4218;48.326;14.304;2022-07-23T00:11:56;5.13;;;3.83;;
8361;SDS011;4218;48.326;14.304;2022-07-23T00:14:22;5.80;;;4.13;;
8361;SDS011;4218;48.326;14.304;2022-07-23T00:16:52;4.37;;;4.03;;
8361;SDS011;4218;48.326;14.304;2022-07-23T00:19:36;4.13;;;3.83;;
8361;SDS011;4218;48.326;14.304;2022-07-23T00:22:01;4.50;;;4.10;;
8361;SDS011;4218;48.326;14.304;2022-07-23T00:24:27;4.60;;;4.20;;
8361;SDS011;4218;48.326;14.304;2022-07-23T00:27:04;4.57;;;4.17;;
8361;SDS011;4218;48.326;14.304;2022-07-23T00:29:30;4.50;;;4.10;;
8361;SDS011;4218;48.326;14.304;2022-07-23T00:31:55;4.53;;;4.17;;
8361;SDS011;4218;48.326;14.304;2022-07-23T00:34:21;5.07;;;4.03;;
8361;SDS011;4218;48.326;14.304;2022-07-23T00:36:46;3.97;;;3.50;;
8361;SDS011;4218;48.326;14.304;2022-07-23T00:39:15;4.93;;;4.20;;
8361;SDS011;4218;48.326;14.304;2022-07-23T00:41:40;4.63;;;4.27;;
8361;SDS011;4218;48.326;14.304;2022-07-23T00:46:53;4.50;;;4.10;;
8361;SDS011;4218;48.326;14.304;2022-07-23T00:49:24;4.27;;;3.97;;
8361;SDS011;4218;48.326;14.304;2022-07-23T00:51:51;5.07;;;4.20;;
8361;SDS011;4218;48.326;14.304;2022-07-23T00:54:17;5.23;;;4.83;;
8361;SDS011;4218;48.326;14.304;2022-07-23T00:56:44;11.20;;;3.97;;
8361;SDS011;4218;48.326;14.304;2022-07-23T00:59:10;4.53;;;4.17;;
8361;SDS011;4218;48.326;14.304;2022-07-23T01:01:36;4.00;;;3.70;;
8361;SDS011;4218;48.326;14.304;2022-07-23T01:04:02;4.13;;;3.83;;
8361;SDS011;4218;48.326;14.304;2022-07-23T01:06:27;4.47;;;4.10;;
8361;SDS011;4218;48.326;14.304;2022-07-23T01:08:56;4.67;;;4.27;;
8361;SDS011;4218;48.326;14.304;2022-07-23T01:11:24;4.33;;;4.03;;
8361;SDS011;4218;48.326;14.304;2022-07-23T01:13:50;4.27;;;3.80;;
8361;SDS011;4218;48.326;14.304;2022-07-23T01:16:16;4.70;;;3.40;;
8361;SDS011;4218;48.326;14.304;2022-07-23T01:18:41;4.17;;;3.63;;
8361;SDS011;4218;48.326;14.304;2022-07-23T01:21:07;4.20;;;3.80;;
8361;SDS011;4218;48.326;14.304;2022-07-23T01:23:42;5.70;;;4.33;;
8361;SDS011;4218;48.326;14.304;2022-07-23T01:26:08;5.87;;;3.73;;
8361;SDS011;4218;48.326;14.304;2022-07-23T01:28:33;4.63;;;4.17;;
8361;SDS011;4218;48.326;14.304;2022-07-23T01:30:59;4.10;;;3.80;;
8361;SDS011;4218;48.326;14.304;2022-07-23T01:33:24;4.93;;;4.53;;
8361;SDS011;4218;48.326;14.304;2022-07-23T01:35:52;4.40;;;3.93;;
8361;SDS011;4218;48.326;14.304;2022-07-23T01:38:20;4.40;;;4.00;;
8361;SDS011;4218;48.326;14.304;2022-07-23T01:41:09;4.17;;;3.80;;
8361;SDS011;4218;48.326;14.304;2022-07-23T01:43:43;3.73;;;3.43;;
8361;SDS011;4218;48.326;14.304;2022-07-23T01:46:09;3.50;;;3.30;;
8361;SDS011;4218;48.326;14.304;2022-07-23T01:48:35;3.77;;;3.57;;
8361;SDS011;4218;48.326;14.304;2022-07-23T01:51:09;4.27;;;3.87;;
8361;SDS011;4218;48.326;14.304;2022-07-23T01:53:38;3.83;;;3.53;;
8361;SDS011;4218;48.326;14.304;2022-07-23T01:56:03;3.90;;;3.60;;
8361;SDS011;4218;48.326;14.304;2022-07-23T01:58:32;3.87;;;3.57;;
8361;SDS011;4218;48.326;14.304;2022-07-23T02:01:01;3.80;;;3.50;;
8361;SDS011;4218;48.326;14.304;2022-07-23T02:03:29;3.90;;;3.50;;
8361;SDS011;4218;48.326;14.304;2022-07-23T02:06:03;4.43;;;4.10;;
8361;SDS011;4218;48.326;14.304;2022-07-23T02:08:29;4.80;;;4.33;;
8361;SDS011;4218;48.326;14.304;2022-07-23T02:11:03;3.87;;;3.57;;
8361;SDS011;4218;48.326;14.304;2022-07-23T02:13:36;4.33;;;3.97;;
8361;SDS011;4218;48.326;14.304;2022-07-23T02:16:02;4.57;;;4.20;;
8361;SDS011;4218;48.326;14.304;2022-07-23T02:18:27;4.53;;;4.10;;
8361;SDS011;4218;48.326;14.304;2022-07-23T02:20:53;4.40;;;4.07;;
8361;SDS011;4218;48.326;14.304;2022-07-23T02:23:20;4.20;;;3.90;;
8361;SDS011;4218;48.326;14.304;2022-07-23T02:25:46;4.13;;;3.73;;
8361;SDS011;4218;48.326;14.304;2022-07-23T02:28:13;4.53;;;4.13;;
8361;SDS011;4218;48.326;14.304;2022-07-23T02:30:42;4.27;;;3.93;;
8361;SDS011;4218;48.326;14.304;2022-07-23T02:33:10;4.53;;;3.90;;
8361;SDS011;4218;48.326;14.304;2022-07-23T02:35:41;4.83;;;4.40;;
8361;SDS011;4218;48.326;14.304;2022-07-23T02:38:06;5.57;;;4.10;;
8361;SDS011;4218;48.326;14.304;2022-07-23T02:40:45;3.80;;;3.57;;
8361;SDS011;4218;48.326;14.304;2022-07-23T02:43:10;4.47;;;4.07;;
8361;SDS011;4218;48.326;14.304;2022-07-23T02:45:36;4.20;;;3.90;;
8361;SDS011;4218;48.326;14.304;2022-07-23T02:48:06;4.73;;;3.53;;
8361;SDS011;4218;48.326;14.304;2022-07-23T02:50:32;3.77;;;3.53;;
8361;SDS011;4218;48.326;14.304;2022-07-23T02:52:57;4.03;;;3.73;;
8361;SDS011;4218;48.326;14.304;2022-07-23T02:55:23;3.90;;;3.60;;
8361;SDS011;4218;48.326;14.304;2022-07-23T02:57:48;3.60;;;3.30;;
8361;SDS011;4218;48.326;14.304;2022-07-23T03:00:14;3.97;;;3.67;;
8361;SDS011;4218;48.326;14.304;2022-07-23T03:02:39;6.70;;;3.90;;
8361;SDS011;4218;48.326;14.304;2022-07-23T03:05:05;4.23;;;3.83;;
8361;SDS011;4218;48.326;14.304;2022-07-23T03:07:30;4.40;;;3.93;;
8361;SDS011;4218;48.326;14.304;2022-07-23T03:09:56;3.67;;;3.37;;
8361;SDS011;4218;48.326;14.304;2022-07-23T03:12:21;6.13;;;3.97;;
8361;SDS011;4218;48.326;14.304;2022-07-23T03:14:50;4.10;;;3.80;;
8361;SDS011;4218;48.326;14.304;2022-07-23T03:17:16;3.57;;;3.23;;
8361;SDS011;4218;48.326;14.304;2022-07-23T03:19:41;3.40;;;3.10;;
8361;SDS011;4218;48.326;14.304;2022-07-23T03:22:07;3.30;;;3.10;;
8361;SDS011;4218;48.326;14.304;2022-07-23T03:24:38;3.37;;;3.17;;
8361;SDS011;4218;48.326;14.304;2022-07-23T03:27:19;5.73;;;4.00;;
8361;SDS011;4218;48.326;14.304;2022-07-23T03:29:51;3.33;;;3.13;;
8361;SDS011;4218;48.326;14.304;2022-07-23T03:32:21;3.40;;;3.20;;
8361;SDS011;4218;48.326;14.304;2022-07-23T03:34:48;4.67;;;3.70;;
8361;SDS011;4218;48.326;14.304;2022-07-23T03:37:14;4.03;;;3.73;;
8361;SDS011;4218;48.326;14.304;2022-07-23T03:39:40;3.57;;;3.27;;
8361;SDS011;4218;48.326;14.304;2022-07-23T03:42:08;3.63;;;3.43;;
8361;SDS011;4218;48.326;14.304;2022-07-23T03:44:34;4.30;;;3.90;;
8361;SDS011;4218;48.326;14.304;2022-07-23T03:47:01;3.80;;;3.50;;
8361;SDS011;4218;48.326;14.304;2022-07-23T03:49:27;4.00;;;3.70;;
8361;SDS011;4218;48.326;14.304;2022-07-23T03:51:53;3.40;;;3.17;;
8361;SDS011;4218;48.326;14.304;2022-07-23T03:54:18;4.13;;;3.83;;
8361;SDS011;4218;48.326;14.304;2022-07-23T03:56:43;3.93;;;3.63;;
8361;SDS011;4218;48.326;14.304;2022-07-23T03:59:15;3.03;;;2.83;;
8361;SDS011;4218;48.326;14.304;2022-07-23T04:01:40;3.57;;;3.27;;
8361;SDS011;4218;48.326;14.304;2022-07-23T04:04:11;3.43;;;3.13;;
8361;SDS011;4218;48.326;14.304;2022-07-23T04:06:37;3.33;;;3.13;;
8361;SDS011;4218;48.326;14.304;2022-07-23T04:09:08;3.90;;;3.60;;
8361;SDS011;4218;48.326;14.304;2022-07-23T04:11:34;3.50;;;3.30;;
8361;SDS011;4218;48.326;14.304;2022-07-23T04:13:59;3.67;;;3.20;;
8361;SDS011;4218;48.326;14.304;2022-07-23T04:16:24;3.67;;;3.37;;
8361;SDS011;4218;48.326;14.304;2022-07-23T04:18:50;3.27;;;2.97;;
8361;SDS011;4218;48.326;14.304;2022-07-23T04:21:15;3.57;;;3.30;;
8361;SDS011;4218;48.326;14.304;2022-07-23T04:23:40;5.73;;;3.20;;
8361;SDS011;4218;48.326;14.304;2022-07-23T04:26:06;3.53;;;3.23;;
8361;SDS011;4218;48.326;14.304;2022-07-23T04:28:31;3.83;;;3.53;;
8361;SDS011;4218;48.326;14.304;2022-07-23T04:30:57;4.30;;;3.90;;
8361;SDS011;4218;48.326;14.304;2022-07-23T04:33:22;4.10;;;3.30;;
8361;SDS011;4218;48.326;14.304;2022-07-23T04:35:48;3.30;;;3.03;;
8361;SDS011;4218;48.326;14.304;2022-07-23T04:38:17;4.40;;;4.10;;
8361;SDS011;4218;48.326;14.304;2022-07-23T04:40:42;5.60;;;3.70;;
8361;SDS011;4218;48.326;14.304;2022-07-23T04:43:10;5.20;;;4.23;;
8361;SDS011;4218;48.326;14.304;2022-07-23T04:45:35;4.37;;;4.00;;
8361;SDS011;4218;48.326;14.304;2022-07-23T04:48:04;3.63;;;3.33;;
8361;SDS011;4218;48.326;14.304;2022-07-23T04:50:29;4.43;;;4.03;;
8361;SDS011;4218;48.326;14.304;2022-07-23T04:52:55;4.00;;;3.70;;
8361;SDS011;4218;48.326;14.304;2022-07-23T04:55:26;4.03;;;3.73;;
8361;SDS011;4218;48.326;14.304;2022-07-23T04:57:51;4.43;;;4.03;;
8361;SDS011;4218;48.326;14.304;2022-07-23T05:00:26;4.33;;;3.93;;
8361;SDS011;4218;48.326;14.304;2022-07-23T05:02:54;4.17;;;3.80;;
8361;SDS011;4218;48.326;14.304;2022-07-23T05:05:23;4.30;;;3.90;;
8361;SDS011;4218;48.326;14.304;2022-07-23T05:07:48;3.30;;;3.10;;
8361;SDS011;4218;48.326;14.304;2022-07-23T05:10:17;3.30;;;3.10;;
8361;SDS011;4218;48.326;14.304;2022-07-23T05:12:42;2.97;;;2.77;;
8361;SDS011;4218;48.326;14.304;2022-07-23T05:15:11;2.87;;;2.67;;
8361;SDS011;4218;48.326;14.304;2022-07-23T05:17:52;2.60;;;2.40;;
8361;SDS011;4218;48.326;14.304;2022-07-23T05:20:59;2.47;;;2.37;;
8361;SDS011;4218;48.326;14.304;2022-07-23T05:23:48;2.53;;;2.37;;
8361;SDS011;4218;48.326;14.304;2022-07-23T05:26:30;3.07;;;2.63;;
8361;SDS011;4218;48.326;14.304;2022-07-23T05:29:00;3.17;;;2.90;;
8361;SDS011;4218;48.326;14.304;2022-07-23T05:31:55;2.77;;;2.40;;
8361;SDS011;4218;48.326;14.304;2022-07-23T05:34:42;2.57;;;2.40;;
8361;SDS011;4218;48.326;14.304;2022-07-23T05:37:24;2.97;;;2.77;;
8361;SDS011;4218;48.326;14.304;2022-07-23T05:40:33;3.00;;;2.80;;
8361;SDS011;4218;48.326;14.304;2022-07-23T05:43:13;3.60;;;2.97;;
8361;SDS011;4218;48.326;14.304;2022-07-23T05:45:42;2.90;;;2.60;;
8361;SDS011;4218;48.326;14.304;2022-07-23T05:48:27;2.63;;;2.50;;
8361;SDS011;4218;48.326;14.304;2022-07-23T05:51:18;2.57;;;2.40;;
8361;SDS011;4218;48.326;14.304;2022-07-23T05:53:52;3.00;;;2.80;;
8361;SDS011;4218;48.326;14.304;2022-07-23T05:56:47;2.20;;;2.10;;
8361;SDS011;4218;48.326;14.304;2022-07-23T05:59:24;2.57;;;2.30;;
8361;SDS011;4218;48.326;14.304;2022-07-23T06:01:58;2.33;;;2.23;;
8361;SDS011;4218;48.326;14.304;2022-07-23T06:04:36;2.33;;;2.17;;
8361;SDS011;4218;48.326;14.304;2022-07-23T06:07:10;2.10;;;2.00;;
8361;SDS011;4218;48.326;14.304;2022-07-23T06:10:11;2.53;;;2.33;;
8361;SDS011;4218;48.326;14.304;2022-07-23T06:16:25;2.20;;;2.10;;
8361;SDS011;4218;48.326;14.304;2022-07-23T06:22:08;2.83;;;2.63;;
8361;SDS011;4218;48.326;14.304;2022-07-23T06:25:13;2.40;;;1.90;;
8361;SDS011;4218;48.326;14.304;2022-07-23T06:33:31;2.27;;;2.17;;
8361;SDS011;4218;48.326;14.304;2022-07-23T06:35:57;2.43;;;2.33;;
8361;SDS011;4218;48.326;14.304;2022-07-23T06:41:31;2.23;;;2.10;;
8361;SDS011;4218;48.326;14.304;2022-07-23T06:47:15;4.83;;;2.43;;
8361;SDS011;4218;48.326;14.304;2022-07-23T06:50:20;2.80;;;2.08;;
8361;SDS011;4218;48.326;14.304;2022-07-23T06:53:09;2.95;;;2.72;;
8361;SDS011;4218;48.326;14.304;2022-07-23T06:59:20;2.20;;;2.10;;
8361;SDS011;4218;48.326;14.304;2022-07-23T07:02:32;2.80;;;2.60;;
8361;SDS011;4218;48.326;14.304;2022-07-23T07:05:49;2.30;;;2.10;;
8361;SDS011;4218;48.326;14.304;2022-07-23T07:08:45;2.53;;;2.43;;
8361;SDS011;4218;48.326;14.304;2022-07-23T07:11:31;2.30;;;2.20;;
8361;SDS011;4218;48.326;14.304;2022-07-23T07:14:24;2.30;;;2.20;;
8361;SDS011;4218;48.326;14.304;2022-07-23T07:30:30;2.50;;;2.30;;
8361;SDS011;4218;48.326;14.304;2022-07-23T07:39:57;2.35;;;2.25;;
8361;SDS011;4218;48.326;14.304;2022-07-23T07:46:17;2.60;;;2.40;;
8361;SDS011;4218;48.326;14.304;2022-07-23T07:52:39;2.58;;;2.38;;
8361;SDS011;4218;48.326;14.304;2022-07-23T07:55:27;2.30;;;2.08;;
8361;SDS011;4218;48.326;14.304;2022-07-23T08:02:19;2.45;;;2.25;;
8361;SDS011;4218;48.326;14.304;2022-07-23T08:05:57;2.60;;;2.50;;
8361;SDS011;4218;48.326;14.304;2022-07-23T08:13:25;2.15;;;2.03;;
8361;SDS011;4218;48.326;14.304;2022-07-23T08:19:45;2.15;;;2.05;;
8361;SDS011;4218;48.326;14.304;2022-07-23T08:29:36;1.98;;;1.88;;
8361;SDS011;4218;48.326;14.304;2022-07-23T08:38:50;4.57;;;2.00;;
8361;SDS011;4218;48.326;14.304;2022-07-23T13:06:46;2.00;;;1.90;;
8361;SDS011;4218;48.326;14.304;2022-07-23T13:09:14;1.85;;;1.75;;
8361;SDS011;4218;48.326;14.304;2022-07-23T13:11:46;2.22;;;2.03;;
8361;SDS011;4218;48.326;14.304;2022-07-23T13:14:13;3.58;;;2.25;;
8361;SDS011;4218;48.326;14.304;2022-07-23T13:16:40;2.40;;;2.20;;
8361;SDS011;4218;48.326;14.304;2022-07-23T13:19:06;2.30;;;2.20;;
8361;SDS011;4218;48.326;14.304;2022-07-23T13:21:32;1.83;;;1.80;;
8361;SDS011;4218;48.326;14.304;2022-07-23T13:23:58;2.55;;;2.45;;
8361;SDS011;4218;48.326;14.304;2022-07-23T13:26:24;1.92;;;1.83;;
8361;SDS011;4218;48.326;14.304;2022-07-23T13:28:50;1.77;;;1.67;;
8361;SDS011;4218;48.326;14.304;2022-07-23T13:31:18;1.70;;;1.70;;
8361;SDS011;4218;48.326;14.304;2022-07-23T13:33:44;2.10;;;2.00;;
8361;SDS011;4218;48.326;14.304;2022-07-23T13:36:10;2.15;;;1.83;;
8361;SDS011;4218;48.326;14.304;2022-07-23T13:38:35;2.25;;;2.08;;
8361;SDS011;4218;48.326;14.304;2022-07-23T13:41:03;1.98;;;1.85;;
8361;SDS011;4218;48.326;14.304;2022-07-23T13:43:30;2.22;;;2.13;;
8361;SDS011;4218;48.326;14.304;2022-07-23T13:45:56;2.08;;;1.98;;
8361;SDS011;4218;48.326;14.304;2022-07-23T13:48:22;2.40;;;2.17;;
8361;SDS011;4218;48.326;14.304;2022-07-23T13:50:50;2.47;;;2.30;;
8361;SDS011;4218;48.326;14.304;2022-07-23T13:53:19;2.20;;;2.05;;
8361;SDS011;4218;48.326;14.304;2022-07-23T13:55:47;2.28;;;2.08;;
8361;SDS011;4218;48.326;14.304;2022-07-23T13:58:15;1.92;;;1.83;;
8361;SDS011;4218;48.326;14.304;2022-07-23T14:00:43;1.60;;;1.60;;
8361;SDS011;4218;48.326;14.304;2022-07-23T14:03:11;2.03;;;1.92;;
8361;SDS011;4218;48.326;14.304;2022-07-23T14:05:38;2.63;;;2.42;;
8361;SDS011;4218;48.326;14.304;2022-07-23T14:08:04;2.08;;;1.98;;
8361;SDS011;4218;48.326;14.304;2022-07-23T14:10:30;2.10;;;2.00;;
8361;SDS011;4218;48.326;14.304;2022-07-23T14:12:56;2.70;;;2.50;;
8361;SDS011;4218;48.326;14.304;2022-07-23T14:15:23;2.65;;;2.40;;
8361;SDS011;4218;48.326;14.304;2022-07-23T14:17:49;2.33;;;2.22;;
8361;SDS011;4218;48.326;14.304;2022-07-23T14:20:15;2.17;;;2.08;;
8361;SDS011;4218;48.326;14.304;2022-07-23T14:22:41;2.33;;;2.22;;
8361;SDS011;4218;48.326;14.304;2022-07-23T14:25:07;2.33;;;2.20;;
8361;SDS011;4218;48.326;14.304;2022-07-23T14:27:34;2.22;;;2.13;;
8361;SDS011;4218;48.326;14.304;2022-07-23T14:30:02;2.13;;;2.03;;
8361;SDS011;4218;48.326;14.304;2022-07-23T14:32:29;2.22;;;2.10;;
8361;SDS011;4218;48.326;14.304;2022-07-23T14:34:55;2.38;;;2.28;;
8361;SDS011;4218;48.326;14.304;2022-07-23T14:37:22;2.42;;;2.30;;
8361;SDS011;4218;48.326;14.304;2022-07-23T14:39:47;2.45;;;2.30;;
8361;SDS011;4218;48.326;14.304;2022-07-23T14:42:13;2.22;;;2.10;;
8361;SDS011;4218;48.326;14.304;2022-07-23T14:44:39;2.35;;;1.80;;
8361;SDS011;4218;48.326;14.304;2022-07-23T14:47:05;1.73;;;1.73;;
8361;SDS011;4218;48.326;14.304;2022-07-23T14:49:32;2.05;;;1.95;;
8361;SDS011;4218;48.326;14.304;2022-07-23T14:51:58;1.75;;;1.67;;
8361;SDS011;4218;48.326;14.304;2022-07-23T14:54:26;1.98;;;1.88;;
8361;SDS011;4218;48.326;14.304;2022-07-23T14:56:56;2.25;;;2.15;;
8361;SDS011;4218;48.326;14.304;2022-07-23T14:59:23;2.08;;;1.98;;
8361;SDS011;4218;48.326;14.304;2022-07-23T15:01:49;2.25;;;2.15;;
8361;SDS011;4218;48.326;14.304;2022-07-23T15:04:16;3.95;;;2.22;;
8361;SDS011;4218;48.326;14.304;2022-07-23T15:06:42;2.50;;;2.30;;
8361;SDS011;4218;48.326;14.304;2022-07-23T15:09:08;2.17;;;2.08;;
8361;SDS011;4218;48.326;14.304;2022-07-23T15:11:33;2.53;;;2.30;;
8361;SDS011;4218;48.326;14.304;2022-07-23T15:14:01;2.15;;;1.70;;
8361;SDS011;4218;48.326;14.304;2022-07-23T15:16:33;2.17;;;2.05;;
8361;SDS011;4218;48.326;14.304;2022-07-23T15:18:59;2.25;;;2.15;;
8361;SDS011;4218;48.326;14.304;2022-07-23T15:21:26;1.98;;;1.88;;
8361;SDS011;4218;48.326;14.304;2022-07-23T15:23:54;2.00;;;1.90;;
8361;SDS011;4218;48.326;14.304;2022-07-23T15:26:20;2.80;;;2.60;;
8361;SDS011;4218;48.326;14.304;2022-07-23T15:28:47;2.15;;;2.08;;
8361;SDS011;4218;48.326;14.304;2022-07-23T15:31:12;2.28;;;2.17;;
8361;SDS011;4218;48.326;14.304;2022-07-23T15:33:38;2.55;;;2.35;;
8361;SDS011;4218;48.326;14.304;2022-07-23T15:36:05;2.08;;;1.98;;
8361;SDS011;4218;48.326;14.304;2022-07-23T15:38:32;2.10;;;2.00;;
8361;SDS011;4218;48.326;14.304;2022-07-23T15:40:58;2.40;;;2.30;;
8361;SDS011;4218;48.326;14.304;2022-07-23T15:43:24;2.42;;;2.33;;
8361;SDS011;4218;48.326;14.304;2022-07-23T15:45:50;2.50;;;2.40;;
8361;SDS011;4218;48.326;14.304;2022-07-23T15:48:17;5.55;;;2.60;;
8361;SDS011;4218;48.326;14.304;2022-07-23T15:50:43;4.20;;;2.70;;
8361;SDS011;4218;48.326;14.304;2022-07-23T15:53:10;2.15;;;2.05;;
8361;SDS011;4218;48.326;14.304;2022-07-23T15:55:36;2.72;;;2.53;;
8361;SDS011;4218;48.326;14.304;2022-07-23T15:58:04;2.35;;;2.20;;
8361;SDS011;4218;48.326;14.304;2022-07-23T16:00:29;2.17;;;2.08;;
8361;SDS011;4218;48.326;14.304;2022-07-23T16:02:55;3.20;;;2.60;;
8361;SDS011;4218;48.326;14.304;2022-07-23T16:05:22;2.58;;;2.35;;
8361;SDS011;4218;48.326;14.304;2022-07-23T16:08:00;2.67;;;2.53;;
8361;SDS011;4218;48.326;14.304;2022-07-23T16:10:27;2.47;;;2.38;;
8361;SDS011;4218;48.326;14.304;2022-07-23T16:12:53;2.50;;;2.38;;
8361;SDS011;4218;48.326;14.304;2022-07-23T16:15:19;3.47;;;2.40;;
8361;SDS011;4218;48.326;14.304;2022-07-23T16:17:44;2.67;;;2.47;;
8361;SDS011;4218;48.326;14.304;2022-07-23T16:20:10;2.40;;;2.20;;
8361;SDS011;4218;48.326;14.304;2022-07-23T16:22:36;2.42;;;2.33;;
8361;SDS011;4218;48.326;14.304;2022-07-23T16:25:04;2.67;;;2.47;;
8361;SDS011;4218;48.326;14.304;2022-07-23T16:27:32;2.67;;;2.50;;
8361;SDS011;4218;48.326;14.304;2022-07-23T16:30:00;2.85;;;2.65;;
8361;SDS011;4218;48.326;14.304;2022-07-23T16:32:25;2.38;;;2.08;;
8361;SDS011;4218;48.326;14.304;2022-07-23T16:34:51;2.45;;;2.28;;
8361;SDS011;4218;48.326;14.304;2022-07-23T16:37:18;2.35;;;2.25;;
8361;SDS011;4218;48.326;14.304;2022-07-23T16:39:47;2.92;;;2.58;;
8361;SDS011;4218;48.326;14.304;2022-07-23T16:42:12;2.58;;;2.42;;
8361;SDS011;4218;48.326;14.304;2022-07-23T16:44:41;2.78;;;2.58;;
8361;SDS011;4218;48.326;14.304;2022-07-23T16:47:07;2.60;;;2.40;;
8361;SDS011;4218;48.326;14.304;2022-07-23T16:49:35;2.85;;;2.65;;
8361;SDS011;4218;48.326;14.304;2022-07-23T16:52:01;2.95;;;2.60;;
8361;SDS011;4218;48.326;14.304;2022-07-23T16:54:27;2.80;;;2.53;;
8361;SDS011;4218;48.326;14.304;2022-07-23T16:56:53;3.00;;;2.63;;
8361;SDS011;4218;48.326;14.304;2022-07-23T16:59:22;2.55;;;2.38;;
8361;SDS011;4218;48.326;14.304;2022-07-23T17:01:48;2.63;;;2.42;;
8361;SDS011;4218;48.326;14.304;2022-07-23T17:04:13;2.50;;;2.40;;
8361;SDS011;4218;48.326;14.304;2022-07-23T17:06:39;3.05;;;2.60;;
8361;SDS011;4218;48.326;14.304;2022-07-23T17:09:06;3.33;;;2.00;;
8361;SDS011;4218;48.326;14.304;2022-07-23T17:11:32;4.03;;;2.50;;
8361;SDS011;4218;48.326;14.304;2022-07-23T17:13:58;2.65;;;2.45;;
8361;SDS011;4218;48.326;14.304;2022-07-23T17:16:24;2.30;;;2.20;;
8361;SDS011;4218;48.326;14.304;2022-07-23T17:18:49;2.53;;;2.33;;
8361;SDS011;4218;48.326;14.304;2022-07-23T17:21:16;2.35;;;2.25;;
8361;SDS011;4218;48.326;14.304;2022-07-23T17:23:42;2.88;;;2.67;;
8361;SDS011;4218;48.326;14.304;2022-07-23T17:26:08;2.28;;;2.17;;
8361;SDS011;4218;48.326;14.304;2022-07-23T17:28:33;3.05;;;2.78;;
8361;SDS011;4218;48.326;14.304;2022-07-23T17:30:59;2.63;;;2.42;;
8361;SDS011;4218;48.326;14.304;2022-07-23T17:33:25;2.95;;;2.75;;
8361;SDS011;4218;48.326;14.304;2022-07-23T17:35:54;5.72;;;2.45;;
8361;SDS011;4218;48.326;14.304;2022-07-23T17:38:20;2.85;;;2.63;;
8361;SDS011;4218;48.326;14.304;2022-07-23T17:40:46;2.50;;;2.40;;
8361;SDS011;4218;48.326;14.304;2022-07-23T17:43:12;2.45;;;2.30;;
8361;SDS011;4218;48.326;14.304;2022-07-23T17:45:39;2.60;;;2.40;;
8361;SDS011;4218;48.326;14.304;2022-07-23T17:48:04;2.03;;;1.92;;
8361;SDS011;4218;48.326;14.304;2022-07-23T17:50:30;2.63;;;2.42;;
8361;SDS011;4218;48.326;14.304;2022-07-23T17:52:57;2.30;;;2.20;;
8361;SDS011;4218;48.326;14.304;2022-07-23T17:55:24;2.80;;;2.60;;
8361;SDS011;4218;48.326;14.304;2022-07-23T17:57:51;3.33;;;2.70;;
8361;SDS011;4218;48.326;14.304;2022-07-23T18:00:20;3.50;;;3.30;;
8361;SDS011;4218;48.326;14.304;2022-07-23T18:02:47;4.87;;;4.17;;
8361;SDS011;4218;48.326;14.304;2022-07-23T18:05:15;5.57;;;4.20;;
8361;SDS011;4218;48.326;14.304;2022-07-23T18:07:40;5.83;;;4.37;;
8361;SDS011;4218;48.326;14.304;2022-07-23T18:10:06;2.87;;;2.67;;
8361;SDS011;4218;48.326;14.304;2022-07-23T18:12:33;3.47;;;2.73;;
8361;SDS011;4218;48.326;14.304;2022-07-23T18:14:59;6.33;;;2.87;;
8361;SDS011;4218;48.326;14.304;2022-07-23T18:17:24;2.77;;;2.63;;
8361;SDS011;4218;48.326;14.304;2022-07-23T18:19:50;2.83;;;2.63;;
8361;SDS011;4218;48.326;14.304;2022-07-23T18:22:15;2.60;;;2.13;;
8361;SDS011;4218;48.326;14.304;2022-07-23T18:24:41;2.40;;;2.30;;
8361;SDS011;4218;48.326;14.304;2022-07-23T18:27:07;2.60;;;2.40;;
8361;SDS011;4218;48.326;14.304;2022-07-23T18:29:32;4.47;;;2.33;;
8361;SDS011;4218;48.326;14.304;2022-07-23T18:31:58;2.90;;;2.67;;
8361;SDS011;4218;48.326;14.304;2022-07-23T18:34:24;2.67;;;2.47;;
8361;SDS011;4218;48.326;14.304;2022-07-23T18:36:49;2.50;;;2.20;;
8361;SDS011;4218;48.326;14.304;2022-07-23T18:39:15;2.47;;;2.37;;
8361;SDS011;4218;48.326;14.304;2022-07-23T18:41:42;2.47;;;2.27;;
8361;SDS011;4218;48.326;14.304;2022-07-23T18:44:08;2.23;;;2.13;;
8361;SDS011;4218;48.326;14.304;2022-07-23T18:46:33;2.23;;;2.10;;
8361;SDS011;4218;48.326;14.304;2022-07-23T18:48:59;2.57;;;2.37;;
8361;SDS011;4218;48.326;14.304;2022-07-23T18:51:24;2.37;;;2.27;;
8361;SDS011;4218;48.326;14.304;2022-07-23T18:53:51;2.53;;;2.33;;
8361;SDS011;4218;48.326;14.304;2022-07-23T18:56:17;2.60;;;2.40;;
8361;SDS011;4218;48.326;14.304;2022-07-23T18:58:42;2.60;;;2.47;;
8361;SDS011;4218;48.326;14.304;2022-07-23T19:01:08;3.93;;;2.40;;
8361;SDS011;4218;48.326;14.304;2022-07-23T19:03:36;2.53;;;2.33;;
8361;SDS011;4218;48.326;14.304;2022-07-23T19:06:02;2.87;;;2.67;;
8361;SDS011;4218;48.326;14.304;2022-07-23T19:08:28;2.50;;;2.30;;
8361;SDS011;4218;48.326;14.304;2022-07-23T19:10:53;2.57;;;2.43;;
8361;SDS011;4218;48.326;14.304;2022-07-23T19:13:19;4.90;;;2.97;;
8361;SDS011;4218;48.326;14.304;2022-07-23T19:15:45;2.80;;;2.60;;
8361;SDS011;4218;48.326;14.304;2022-07-23T19:18:11;2.33;;;2.20;;
8361;SDS011;4218;48.326;14.304;2022-07-23T19:20:37;2.23;;;2.03;;
8361;SDS011;4218;48.326;14.304;2022-07-23T19:23:03;2.33;;;2.13;;
8361;SDS011;4218;48.326;14.304;2022-07-23T19:25:29;3.57;;;1.90;;
8361;SDS011;4218;48.326;14.304;2022-07-23T19:27:55;2.23;;;2.03;;
8361;SDS011;4218;48.326;14.304;2022-07-23T19:30:21;3.27;;;2.27;;
8361;SDS011;4218;48.326;14.304;2022-07-23T19:32:46;2.60;;;2.40;;
8361;SDS011;4218;48.326;14.304;2022-07-23T19:35:12;2.00;;;1.90;;
8361;SDS011;4218;48.326;14.304;2022-07-23T19:37:37;2.30;;;2.00;;
8361;SDS011;4218;48.326;14.304;2022-07-23T19:40:03;2.10;;;2.00;;
8361;SDS011;4218;48.326;14.304;2022-07-23T19:42:31;3.03;;;2.20;;
8361;SDS011;4218;48.326;14.304;2022-07-23T19:44:57;1.90;;;1.80;;
8361;SDS011;4218;48.326;14.304;2022-07-23T19:47:23;1.70;;;1.60;;
8361;SDS011;4218;48.326;14.304;2022-07-23T19:49:49;2.07;;;1.97;;
8361;SDS011;4218;48.326;14.304;2022-07-23T19:52:14;2.20;;;2.10;;
8361;SDS011;4218;48.326;14.304;2022-07-23T19:54:40;2.23;;;2.10;;
8361;SDS011;4218;48.326;14.304;2022-07-23T19:57:06;1.67;;;1.67;;
8361;SDS011;4218;48.326;14.304;2022-07-23T19:59:31;1.93;;;1.83;;
8361;SDS011;4218;48.326;14.304;2022-07-23T20:01:57;1.80;;;1.80;;
8361;SDS011;4218;48.326;14.304;2022-07-23T20:04:23;1.80;;;1.70;;
8361;SDS011;4218;48.326;14.304;2022-07-23T20:06:49;2.17;;;2.07;;
8361;SDS011;4218;48.326;14.304;2022-07-23T20:09:14;2.40;;;2.17;;
8361;SDS011;4218;48.326;14.304;2022-07-23T20:11:40;2.07;;;1.97;;
8361;SDS011;4218;48.326;14.304;2022-07-23T20:14:06;2.53;;;2.13;;
8361;SDS011;4218;48.326;14.304;2022-07-23T20:16:33;1.83;;;1.67;;
8361;SDS011;4218;48.326;14.304;2022-07-23T20:18:59;1.83;;;1.73;;
8361;SDS011;4218;48.326;14.304;2022-07-23T20:21:25;1.80;;;1.70;;
8361;SDS011;4218;48.326;14.304;2022-07-23T20:23:51;2.40;;;2.20;;
8361;SDS011;4218;48.326;14.304;2022-07-23T20:26:16;2.07;;;1.97;;
8361;SDS011;4218;48.326;14.304;2022-07-23T20:28:42;1.90;;;1.80;;
8361;SDS011;4218;48.326;14.304;2022-07-23T20:31:08;2.13;;;1.93;;
8361;SDS011;4218;48.326;14.304;2022-07-23T20:33:33;4.33;;;1.93;;
8361;SDS011;4218;48.326;14.304;2022-07-23T20:35:59;1.83;;;1.60;;
8361;SDS011;4218;48.326;14.304;2022-07-23T20:38:25;1.80;;;1.70;;
8361;SDS011;4218;48.326;14.304;2022-07-23T20:40:51;1.93;;;1.83;;
8361;SDS011;4218;48.326;14.304;2022-07-23T20:43:17;1.73;;;1.63;;
8361;SDS011;4218;48.326;14.304;2022-07-23T20:45:42;1.87;;;1.77;;
8361;SDS011;4218;48.326;14.304;2022-07-23T20:48:08;2.37;;;2.17;;
8361;SDS011;4218;48.326;14.304;2022-07-23T20:50:35;1.60;;;1.50;;
8361;SDS011;4218;48.326;14.304;2022-07-23T20:53:02;2.00;;;1.80;;
8361;SDS011;4218;48.326;14.304;2022-07-23T20:55:28;1.90;;;1.80;;
8361;SDS011;4218;48.326;14.304;2022-07-23T20:57:54;2.10;;;2.00;;